createdAt,value
2023-01-30T00:02:33.526Z,26.30
2023-01-30T00:06:36.999Z,25.80
2023-01-30T00:10:40.531Z,17.87
2023-01-30T00:14:45.313Z,28.43
2023-01-30T00:18:48.613Z,24.30
2023-01-30T00:23:00.555Z,26.63
2023-01-30T00:27:04.612Z,22.13
2023-01-30T00:31:10.023Z,22.07
2023-01-30T00:35:13.407Z,23.47
2023-01-30T00:39:16.788Z,22.00
2023-01-30T00:43:39.803Z,24.97
2023-01-30T00:47:45.204Z,20.33
2023-01-30T00:51:48.526Z,16.57
2023-01-30T00:55:52.351Z,21.70
2023-01-30T00:59:55.744Z,19.43
2023-01-30T01:04:00.539Z,22.10
2023-01-30T01:08:04.063Z,26.83
2023-01-30T01:12:08.318Z,21.50
2023-01-30T01:16:11.984Z,24.13
2023-01-30T01:20:17.305Z,18.17
2023-01-30T01:24:20.849Z,20.20
2023-01-30T01:28:24.562Z,21.83
2023-01-30T01:32:28.194Z,18.47
2023-01-30T01:36:52.795Z,22.73
2023-01-30T01:41:07.307Z,24.63
2023-01-30T01:45:21.004Z,21.37
2023-01-30T01:49:27.287Z,13.47
2023-01-30T01:53:37.719Z,19.47
2023-01-30T01:57:45.474Z,23.73
2023-01-30T02:01:50.979Z,21.67
2023-01-30T02:05:58.873Z,20.17
2023-01-30T02:10:04.508Z,26.23
2023-01-30T02:14:08.480Z,26.63
2023-01-30T02:18:12.684Z,21.87
2023-01-30T02:22:47.246Z,23.23
2023-01-30T02:27:28.538Z,18.97
2023-01-30T02:31:44.919Z,19.07
2023-01-30T02:35:57.519Z,21.07
2023-01-30T02:40:31.332Z,22.00
2023-01-30T02:44:45.089Z,20.90
2023-01-30T02:48:53.739Z,17.23
2023-01-30T02:52:59.020Z,20.43
2023-01-30T02:57:03.086Z,17.67
2023-01-30T03:01:28.244Z,14.83
2023-01-30T03:05:46.074Z,21.53
2023-01-30T03:09:59.338Z,20.77
2023-01-30T03:14:09.967Z,17.60
2023-01-30T03:18:13.931Z,21.13
2023-01-30T03:22:18.910Z,18.57
2023-01-30T03:26:27.251Z,18.67
2023-01-30T03:30:30.957Z,18.20
2023-01-30T03:34:34.706Z,17.90
2023-01-30T03:38:39.752Z,21.27
2023-01-30T03:42:43.534Z,15.37
2023-01-30T03:46:47.185Z,19.00
2023-01-30T03:50:50.953Z,20.03
2023-01-30T03:54:55.903Z,27.70
2023-01-30T03:58:59.651Z,19.87
2023-01-30T04:03:03.184Z,19.80
2023-01-30T04:07:06.920Z,20.33
2023-01-30T04:11:11.849Z,15.27
2023-01-30T04:15:15.959Z,14.80
2023-01-30T04:19:19.735Z,16.53
2023-01-30T04:23:23.500Z,17.87
2023-01-30T04:27:28.441Z,14.90
2023-01-30T04:31:32.309Z,19.00
2023-01-30T04:35:35.873Z,15.03
2023-01-30T04:39:39.439Z,18.33
2023-01-30T04:43:44.645Z,25.50
2023-01-30T04:47:48.203Z,16.13
2023-01-30T04:51:51.953Z,20.37
2023-01-30T04:55:55.492Z,17.70
2023-01-30T05:00:00.539Z,20.87
2023-01-30T05:04:04.421Z,18.63
2023-01-30T05:08:08.076Z,21.90
2023-01-30T05:12:11.648Z,17.77
2023-01-30T05:16:17.753Z,20.90
2023-01-30T05:20:21.524Z,18.80
2023-01-30T05:24:26.388Z,18.27
2023-01-30T05:28:30.226Z,18.10
2023-01-30T05:32:35.124Z,18.33
2023-01-30T05:36:38.962Z,15.80
2023-01-30T05:40:42.764Z,16.73
2023-01-30T05:44:46.817Z,21.50
2023-01-30T05:48:51.935Z,18.93
2023-01-30T05:52:55.548Z,22.50
2023-01-30T05:56:59.327Z,19.50
2023-01-30T06:01:03.488Z,10.93
2023-01-30T06:05:09.677Z,19.97
2023-01-30T06:09:13.204Z,13.10
2023-01-30T06:13:16.959Z,18.07
2023-01-30T06:17:20.791Z,18.40
2023-01-30T06:21:25.750Z,18.80
2023-01-30T06:25:29.844Z,19.93
2023-01-30T06:29:33.421Z,16.87
2023-01-30T06:33:37.192Z,14.87
2023-01-30T06:37:42.298Z,19.77
2023-01-30T06:41:45.812Z,22.57
2023-01-30T06:45:49.588Z,22.20
2023-01-30T06:49:53.158Z,19.93
2023-01-30T06:53:58.291Z,18.33
2023-01-30T06:58:06.055Z,18.37
2023-01-30T07:02:14.392Z,19.60
2023-01-30T07:06:18.104Z,19.70
2023-01-30T07:10:26.364Z,27.50
2023-01-30T07:14:29.914Z,20.67
2023-01-30T07:18:33.766Z,17.97
2023-01-30T07:22:37.412Z,18.00
2023-01-30T07:26:42.821Z,21.73
2023-01-30T07:30:46.615Z,25.80
2023-01-30T07:34:50.279Z,16.37
2023-01-30T07:38:53.828Z,28.03
2023-01-30T07:43:01.171Z,21.43
2023-01-30T07:47:04.687Z,19.00
2023-01-30T07:51:08.501Z,31.87
2023-01-30T07:55:12.151Z,31.77
2023-01-30T07:59:17.117Z,20.73
2023-01-30T08:03:21.136Z,23.43
2023-01-30T08:07:24.691Z,23.90
2023-01-30T08:11:28.361Z,20.83
2023-01-30T08:15:33.732Z,25.60
2023-01-30T08:19:37.390Z,19.90
2023-01-30T08:23:40.923Z,22.57
2023-01-30T08:27:44.713Z,17.33
2023-01-30T08:31:50.406Z,17.63
2023-01-30T08:35:54.189Z,17.40
2023-01-30T08:39:57.915Z,23.97
2023-01-30T08:44:01.471Z,23.17
2023-01-30T08:48:07.705Z,18.53
2023-01-30T08:52:11.611Z,23.00
2023-01-30T08:56:15.251Z,19.40
2023-01-30T09:00:20.002Z,18.33
2023-01-30T09:04:26.588Z,25.00
2023-01-30T09:08:30.247Z,29.20
2023-01-30T09:12:34.255Z,24.57
2023-01-30T09:16:37.828Z,18.80
2023-01-30T09:20:43.052Z,17.40
2023-01-30T09:24:46.555Z,21.33
2023-01-30T09:28:50.247Z,17.63
2023-01-30T09:32:53.830Z,17.73
2023-01-30T09:37:00.410Z,17.83
2023-01-30T09:41:24.146Z,18.90
2023-01-30T09:45:46.887Z,16.20
2023-01-30T09:49:59.598Z,21.00
2023-01-30T09:54:29.854Z,16.77
2023-01-30T09:58:44.212Z,17.40
2023-01-30T10:02:53.285Z,15.47
2023-01-30T10:07:04.612Z,11.70
2023-01-30T10:11:21.620Z,14.40
2023-01-30T10:15:40.054Z,16.30
2023-01-30T10:20:03.408Z,16.10
2023-01-30T10:24:24.148Z,16.20
2023-01-30T10:28:33.271Z,9.87
2023-01-30T10:32:43.286Z,11.47
2023-01-30T10:36:53.987Z,16.90
2023-01-30T10:41:04.099Z,16.47
2023-01-30T10:45:16.552Z,16.60
2023-01-30T10:49:29.480Z,16.50
2023-01-30T10:53:37.983Z,13.20
2023-01-30T10:57:54.554Z,13.47
2023-01-30T11:02:17.909Z,24.27
2023-01-30T11:06:25.061Z,18.13
2023-01-30T11:10:29.312Z,19.67
2023-01-30T11:14:52.387Z,26.20
2023-01-30T11:19:19.678Z,18.43
2023-01-30T11:23:28.581Z,16.80
2023-01-30T11:27:34.182Z,17.60
2023-01-30T11:31:42.154Z,16.50
2023-01-30T11:35:56.829Z,12.40
2023-01-30T11:40:00.652Z,17.30
2023-01-30T11:44:07.614Z,17.30
2023-01-30T11:48:32.730Z,14.43
2023-01-30T11:52:46.357Z,13.20
2023-01-30T11:56:54.238Z,14.10
2023-01-30T12:00:59.519Z,12.37
2023-01-30T12:05:05.875Z,19.00
2023-01-30T12:09:32.933Z,13.00
2023-01-30T12:13:40.545Z,16.10
2023-01-30T12:17:50.696Z,13.93
2023-01-30T12:22:04.493Z,12.30
2023-01-30T12:26:15.551Z,13.43
2023-01-30T12:30:28.117Z,10.70
2023-01-30T12:34:31.967Z,10.97
2023-01-30T12:38:56.929Z,11.73
2023-01-30T12:43:32.857Z,9.50
2023-01-30T12:47:49.799Z,8.73
2023-01-30T12:52:07.897Z,9.80
2023-01-30T12:56:29.347Z,8.20
2023-01-30T13:00:47.937Z,10.80
2023-01-30T13:05:03.948Z,9.20
2023-01-30T13:09:28.080Z,8.40
2023-01-30T13:13:42.762Z,7.37
2023-01-30T13:18:06.515Z,7.63
2023-01-30T13:22:14.513Z,13.13
2023-01-30T13:26:21.243Z,6.80
2023-01-30T13:30:27.806Z,10.30
2023-01-30T13:34:37.497Z,7.03
2023-01-30T13:38:47.053Z,5.70
2023-01-30T13:42:55.318Z,7.83
2023-01-30T13:47:03.056Z,8.20
2023-01-30T13:51:38.464Z,10.40
2023-01-30T13:55:49.966Z,8.77
2023-01-30T14:00:19.914Z,8.27
2023-01-30T14:04:46.607Z,11.90
2023-01-30T14:08:59.716Z,8.10
2023-01-30T14:13:07.330Z,12.03
2023-01-30T14:17:14.361Z,8.43
2023-01-30T14:21:21.380Z,5.67
2023-01-30T14:25:48.279Z,7.10
2023-01-30T14:29:58.232Z,14.27
2023-01-30T14:34:02.116Z,12.20
2023-01-30T14:38:15.447Z,7.87
2023-01-30T14:42:25.975Z,10.00
2023-01-30T14:46:58.130Z,12.87
2023-01-30T14:51:33.454Z,9.17
2023-01-30T14:55:37.713Z,8.27
2023-01-30T16:14:51.068Z,9.10
2023-01-30T16:18:56.600Z,8.93
2023-01-30T16:23:01.196Z,9.63
2023-01-30T16:27:08.841Z,12.83
2023-01-30T16:31:14.042Z,16.07
2023-01-30T16:35:28.392Z,17.00
2023-01-30T16:39:33.980Z,14.97
2023-01-30T16:43:44.383Z,14.73
2023-01-30T16:47:50.085Z,8.60
2023-01-30T16:52:04.718Z,12.23
2023-01-30T16:56:11.448Z,14.33
2023-01-30T17:00:23.159Z,12.43
2023-01-30T17:04:31.910Z,12.40
2023-01-30T17:08:46.989Z,17.03
2023-01-30T17:12:53.291Z,16.53
2023-01-30T17:17:04.953Z,22.00
2023-01-30T17:21:16.097Z,17.13
2023-01-30T17:25:26.989Z,15.27
2023-01-30T17:29:42.395Z,12.77
2023-01-30T17:33:47.890Z,12.17
2023-01-30T17:38:05.373Z,19.30
2023-01-30T17:42:14.562Z,19.97
2023-01-30T17:46:24.337Z,18.30
2023-01-30T17:50:29.491Z,14.10
2023-01-30T17:54:37.531Z,12.53
2023-01-30T17:58:43.072Z,15.57
2023-01-30T18:02:48.516Z,25.27
2023-01-30T18:06:56.544Z,9.07
2023-01-30T18:11:03.519Z,5.53
2023-01-30T18:15:09.639Z,2.23
2023-01-30T18:19:16.712Z,2.93
2023-01-30T18:23:21.247Z,1.53
2023-01-30T18:27:27.602Z,0.63
2023-01-30T18:31:34.577Z,1.70
2023-01-30T18:35:40.181Z,0.40
2023-01-30T18:39:44.822Z,1.63
2023-01-30T18:43:56.535Z,0.80
2023-01-30T18:48:01.548Z,0.40
2023-01-30T18:52:08.396Z,0.70
2023-01-30T18:56:21.850Z,1.80
2023-01-30T19:00:29.644Z,1.00
2023-01-30T19:04:38.763Z,0.63
2023-01-30T19:08:48.730Z,0.93
2023-01-30T19:13:12.801Z,0.70
2023-01-30T19:17:22.956Z,0.67
2023-01-30T19:21:32.278Z,0.80
2023-01-30T19:25:40.637Z,0.60
2023-01-30T19:29:52.413Z,2.17
2023-01-30T19:34:02.560Z,0.53
2023-01-30T19:38:10.644Z,3.07
2023-01-30T19:42:17.180Z,0.77
2023-01-30T19:46:25.879Z,0.70
2023-01-30T19:50:36.570Z,0.60
2023-01-30T19:54:42.261Z,0.60
2023-01-30T19:58:47.294Z,0.60
2023-01-30T20:03:03.431Z,1.03
2023-01-30T20:07:13.225Z,1.10
2023-01-30T20:11:25.763Z,0.60
2023-01-30T20:15:45.265Z,1.10
2023-01-30T20:19:51.918Z,0.70
2023-01-30T20:24:00.798Z,0.90
2023-01-30T20:28:11.381Z,0.80
2023-01-30T20:32:20.051Z,0.80
2023-01-30T20:36:25.441Z,1.33
2023-01-30T20:40:32.034Z,2.00
2023-01-30T20:44:38.359Z,0.90
2023-01-30T20:48:44.968Z,0.80
2023-01-30T20:52:56.540Z,1.03
2023-01-30T20:57:03.803Z,0.67
2023-01-30T21:01:17.687Z,0.60
2023-01-30T21:05:28.175Z,1.43
2023-01-30T21:09:33.342Z,0.53
2023-01-30T21:13:39.493Z,0.47
2023-01-30T21:17:43.733Z,1.13
2023-01-30T21:21:51.398Z,2.20
2023-01-30T21:25:55.988Z,0.50
2023-01-30T21:30:02.079Z,0.60
2023-01-30T21:34:06.691Z,0.43
2023-01-30T21:38:29.719Z,0.90
2023-01-30T21:42:50.731Z,0.80
2023-01-30T21:46:56.923Z,1.00
2023-01-30T21:51:11.086Z,1.13
2023-01-30T21:55:14.688Z,0.60
2023-01-30T21:59:18.754Z,1.90
2023-01-30T22:03:27.772Z,1.07
2023-01-30T22:07:32.561Z,0.70
2023-01-30T22:11:37.804Z,1.63
2023-01-30T22:15:43.446Z,0.50
2023-01-30T22:19:48.431Z,1.53
2023-01-30T22:23:53.953Z,2.10
2023-01-30T22:27:57.512Z,1.30
2023-01-30T22:32:01.117Z,0.97
2023-01-30T22:36:09.005Z,0.70
2023-01-30T22:40:13.431Z,1.00
2023-01-30T22:44:17.293Z,0.50
2023-01-30T22:48:20.848Z,1.17
2023-01-30T22:52:25.997Z,0.50
2023-01-30T22:56:31.542Z,0.70
2023-01-30T23:00:35.871Z,0.57
2023-01-30T23:04:39.405Z,0.40
2023-01-30T23:08:46.912Z,1.00
2023-01-30T23:13:08.990Z,0.60
2023-01-30T23:17:30.210Z,0.47
2023-01-30T23:21:37.086Z,0.80
2023-01-30T23:25:43.669Z,2.63
2023-01-30T23:29:47.261Z,1.33
2023-01-30T23:33:55.639Z,0.90
2023-01-30T23:38:19.194Z,0.40
2023-01-30T23:42:24.131Z,0.47
2023-01-30T23:46:29.484Z,0.93
2023-01-30T23:50:33.214Z,0.67
2023-01-30T23:54:36.733Z,0.43
2023-01-30T23:58:42.482Z,0.40
